createdAt,value
2022-11-29T00:00:30.069Z,100497.19
2022-11-29T00:03:16.097Z,100489.22
2022-11-29T00:06:05.982Z,100474.69
2022-11-29T00:08:50.131Z,100494.53
2022-11-29T00:11:53.461Z,100504.19
2022-11-29T00:14:37.208Z,100520.25
2022-11-29T00:17:20.910Z,100501.19
2022-11-29T00:20:07.566Z,100499.63
2022-11-29T00:22:51.424Z,100496.09
2022-11-29T00:25:35.228Z,100509.19
2022-11-29T00:28:19.043Z,100500.06
2022-11-29T00:31:03.036Z,100532.84
2022-11-29T00:33:47.126Z,100520.59
2022-11-29T00:36:32.665Z,100531.00
2022-11-29T00:39:16.612Z,100486.09
2022-11-29T00:42:00.593Z,100498.41
2022-11-29T00:44:44.728Z,100491.19
2022-11-29T00:47:28.921Z,100467.97
2022-11-29T00:50:13.455Z,100464.97
2022-11-29T00:52:58.750Z,100479.91
2022-11-29T00:55:42.665Z,100478.25
2022-11-29T00:58:26.752Z,100470.97
2022-11-29T01:01:10.932Z,100519.50
2022-11-29T01:03:55.096Z,100498.84
2022-11-29T01:06:39.002Z,100481.75
2022-11-29T01:09:24.329Z,100482.75
2022-11-29T01:12:08.688Z,100482.69
2022-11-29T01:14:52.609Z,100431.69
2022-11-29T01:17:36.597Z,100465.94
2022-11-29T01:20:21.030Z,100451.22
2022-11-29T01:23:04.957Z,100486.22
2022-11-29T01:25:57.617Z,100453.00
2022-11-29T01:28:42.407Z,100452.16
2022-11-29T01:31:28.425Z,100480.25
2022-11-29T01:34:12.387Z,100485.50
2022-11-29T01:36:56.263Z,100439.50
2022-11-29T01:39:40.679Z,100489.56
2022-11-29T01:42:26.368Z,100479.22
2022-11-29T01:45:24.171Z,100476.56
2022-11-29T01:48:08.166Z,100441.22
2022-11-29T01:50:52.546Z,100439.25
2022-11-29T01:53:37.830Z,100462.50
2022-11-29T01:56:22.654Z,100465.88
2022-11-29T01:59:12.500Z,100417.00
2022-11-29T02:02:00.701Z,100446.25
2022-11-29T02:04:48.133Z,100415.25
2022-11-29T02:07:32.236Z,100422.75
2022-11-29T02:10:16.890Z,100452.53
2022-11-29T02:13:07.828Z,100444.59
2022-11-29T02:16:04.609Z,100435.66
2022-11-29T02:18:59.335Z,100441.56
2022-11-29T02:21:48.207Z,100443.88
2022-11-29T02:25:01.517Z,100479.63
2022-11-29T02:28:34.122Z,100470.16
2022-11-29T02:34:30.469Z,100475.34
2022-11-29T02:37:45.467Z,100427.00
2022-11-29T02:41:01.725Z,100446.91
2022-11-29T02:44:06.838Z,100436.53
2022-11-29T02:47:04.640Z,100439.25
2022-11-29T02:50:15.378Z,100454.06
2022-11-29T02:53:05.958Z,100444.53
2022-11-29T02:55:58.445Z,100425.59
2022-11-29T02:58:51.625Z,100453.19
2022-11-29T03:01:41.687Z,100416.06
2022-11-29T03:04:33.527Z,100468.56
2022-11-29T03:07:26.998Z,100381.03
2022-11-29T03:10:21.806Z,100479.53
2022-11-29T03:13:11.549Z,100467.41
2022-11-29T03:16:00.405Z,100477.84
2022-11-29T03:18:58.465Z,100459.47
2022-11-29T03:21:49.988Z,100456.56
2022-11-29T03:24:40.643Z,100452.22
2022-11-29T03:27:41.880Z,100444.53
2022-11-29T03:30:25.680Z,100459.13
2022-11-29T03:33:14.879Z,100443.63
2022-11-29T03:36:05.996Z,100462.19
2022-11-29T03:38:50.174Z,100460.88
2022-11-29T03:41:42.712Z,100461.03
2022-11-29T03:44:33.110Z,100444.16
2022-11-29T03:47:20.926Z,100464.06
2022-11-29T03:50:09.241Z,100452.22
2022-11-29T03:52:56.230Z,100438.97
2022-11-29T03:55:53.700Z,100451.31
2022-11-29T03:58:52.478Z,100424.56
2022-11-29T04:02:05.284Z,100464.03
2022-11-29T04:05:31.374Z,100496.63
2022-11-29T04:08:57.554Z,100465.84
2022-11-29T04:12:29.218Z,100487.22
2022-11-29T04:15:53.837Z,100473.69
2022-11-29T04:19:00.184Z,100465.38
2022-11-29T04:22:14.226Z,100458.75
2022-11-29T04:25:22.719Z,100493.75
2022-11-29T04:28:33.491Z,100484.75
2022-11-29T04:31:36.583Z,100490.72
2022-11-29T04:34:47.411Z,100497.81
2022-11-29T04:37:55.867Z,100444.53
2022-11-29T04:40:57.119Z,100488.44
2022-11-29T04:43:54.187Z,100447.63
2022-11-29T04:47:03.966Z,100481.94
2022-11-29T04:50:10.905Z,100474.34
2022-11-29T04:53:11.666Z,100491.13
2022-11-29T04:56:06.832Z,100479.44
2022-11-29T04:58:59.641Z,100487.25
2022-11-29T05:02:00.687Z,100497.00
2022-11-29T05:04:54.564Z,100501.91
2022-11-29T05:07:47.627Z,100505.34
2022-11-29T05:10:36.400Z,100491.56
2022-11-29T05:13:29.011Z,100487.28
2022-11-29T05:16:30.689Z,100513.16
2022-11-29T05:19:43.098Z,100513.09
2022-11-29T05:22:34.361Z,100490.59
2022-11-29T05:25:35.112Z,100511.25
2022-11-29T05:28:25.769Z,100491.22
2022-11-29T05:31:39.180Z,100489.22
2022-11-29T05:35:07.504Z,100499.56
2022-11-29T05:37:56.137Z,100495.09
2022-11-29T05:40:58.238Z,100511.88
2022-11-29T05:43:49.790Z,100512.47
2022-11-29T05:46:44.096Z,100532.47
2022-11-29T05:49:38.405Z,100509.03
2022-11-29T05:52:31.740Z,100512.81
2022-11-29T05:55:30.827Z,100517.88
2022-11-29T05:58:30.300Z,100533.63
2022-11-29T06:01:23.207Z,100495.22
2022-11-29T06:04:14.941Z,100518.16
2022-11-29T06:07:05.293Z,100520.13
2022-11-29T06:10:01.484Z,100537.34
2022-11-29T06:13:01.674Z,100523.25
2022-11-29T06:16:09.215Z,100529.66
2022-11-29T06:19:25.513Z,100535.31
2022-11-29T06:22:28.753Z,100531.50
2022-11-29T06:25:24.617Z,100551.16
2022-11-29T06:28:24.649Z,100540.66
2022-11-29T06:31:17.369Z,100523.72
2022-11-29T06:34:08.691Z,100563.75
2022-11-29T06:36:56.048Z,100555.56
2022-11-29T06:39:40.126Z,100558.06
2022-11-29T06:42:23.924Z,100551.06
2022-11-29T06:45:13.873Z,100542.41
2022-11-29T06:48:02.857Z,100557.81
2022-11-29T06:50:54.649Z,100558.03
2022-11-29T06:53:45.139Z,100560.56
2022-11-29T06:56:40.971Z,100555.97
2022-11-29T06:59:40.331Z,100571.75
2022-11-29T07:02:47.241Z,100558.47
2022-11-29T07:05:32.739Z,100532.22
2022-11-29T07:08:19.157Z,100573.03
2022-11-29T07:11:03.411Z,100577.31
2022-11-29T07:13:47.692Z,100568.19
2022-11-29T07:16:38.119Z,100558.88
2022-11-29T07:19:33.579Z,100547.50
2022-11-29T07:22:33.196Z,100544.19
2022-11-29T07:25:26.887Z,100547.38
2022-11-29T07:28:24.887Z,100548.72
2022-11-29T07:31:19.350Z,100488.28
2022-11-29T07:34:11.908Z,100541.94
2022-11-29T07:37:08.278Z,100556.94
2022-11-29T07:40:00.804Z,100530.00
2022-11-29T07:42:56.813Z,100529.91
2022-11-29T07:45:41.221Z,100551.88
2022-11-29T07:48:25.037Z,100556.44
2022-11-29T07:51:09.374Z,100562.72
2022-11-29T07:53:54.538Z,100555.25
2022-11-29T07:56:38.342Z,100546.13
2022-11-29T07:59:22.079Z,100537.69
2022-11-29T08:02:11.470Z,100559.66
2022-11-29T08:04:55.632Z,100562.84
2022-11-29T08:07:41.085Z,100562.78
2022-11-29T08:10:26.511Z,100566.34
2022-11-29T08:13:10.530Z,100498.78
2022-11-29T08:15:54.275Z,100580.63
2022-11-29T08:18:38.059Z,100566.94
2022-11-29T08:21:21.858Z,100564.69
2022-11-29T08:24:06.144Z,100552.53
2022-11-29T08:26:51.419Z,100530.69
2022-11-29T08:29:35.222Z,100572.81
2022-11-29T08:32:19.237Z,100568.56
2022-11-29T08:35:03.171Z,100571.44
2022-11-29T08:37:48.413Z,100568.31
2022-11-29T08:40:32.318Z,100575.53
2022-11-29T08:43:17.745Z,100495.00
2022-11-29T08:46:01.842Z,100571.22
2022-11-29T08:48:46.011Z,100525.63
2022-11-29T08:51:29.867Z,100553.38
2022-11-29T08:54:13.563Z,100564.19
2022-11-29T08:57:37.269Z,100565.41
2022-11-29T09:00:02.672Z,100564.19
2022-11-29T09:02:48.193Z,100564.38
2022-11-29T09:05:32.005Z,100567.94
2022-11-29T09:08:16.559Z,100596.59
2022-11-29T09:11:00.359Z,100552.25
2022-11-29T09:13:45.920Z,100558.94
2022-11-29T09:16:34.352Z,100553.72
2022-11-29T09:19:18.293Z,100552.75
2022-11-29T09:22:02.985Z,100551.22
2022-11-29T09:24:47.162Z,100533.47
2022-11-29T09:27:32.249Z,100533.66
2022-11-29T09:30:22.082Z,100517.78
2022-11-29T09:33:08.655Z,100525.00
2022-11-29T09:35:52.494Z,100515.16
2022-11-29T09:38:36.701Z,100529.00
2022-11-29T09:41:42.947Z,100496.38
2022-11-29T09:44:42.191Z,100518.53
2022-11-29T09:47:50.992Z,100468.06
2022-11-29T09:50:37.743Z,100517.03
2022-11-29T09:53:33.313Z,100512.50
2022-11-29T09:56:24.034Z,100523.91
2022-11-29T09:59:13.293Z,100517.13
2022-11-29T10:02:01.947Z,100488.34
2022-11-29T10:04:51.613Z,100468.38
2022-11-29T10:07:43.000Z,100524.97
2022-11-29T10:10:30.892Z,100516.69
2022-11-29T10:13:21.273Z,100468.63
2022-11-29T10:16:13.148Z,100470.31
2022-11-29T10:19:03.525Z,100499.41
2022-11-29T10:21:55.727Z,100472.78
2022-11-29T10:24:44.428Z,100483.81
2022-11-29T10:27:31.135Z,100511.69
2022-11-29T10:30:17.057Z,100509.19
2022-11-29T10:33:02.716Z,100509.69
2022-11-29T10:35:47.162Z,100508.91
2022-11-29T10:38:31.782Z,100514.03
2022-11-29T10:41:23.868Z,100507.88
2022-11-29T10:44:07.783Z,100510.59
2022-11-29T10:46:52.114Z,100522.72
2022-11-29T10:49:37.385Z,100532.53
2022-11-29T10:52:22.950Z,100505.19
2022-11-29T10:55:13.508Z,100523.81
2022-11-29T10:58:28.605Z,100503.19
2022-11-29T11:01:16.511Z,100499.94
2022-11-29T11:04:04.421Z,100523.47
2022-11-29T11:06:51.600Z,100502.25
2022-11-29T11:09:37.894Z,100510.34
2022-11-29T11:12:24.965Z,100471.25
2022-11-29T11:15:30.450Z,100510.19
2022-11-29T11:18:22.371Z,100514.13
2022-11-29T11:21:10.513Z,100481.63
2022-11-29T11:23:57.813Z,100507.09
2022-11-29T11:26:45.157Z,100516.50
2022-11-29T11:29:36.632Z,100496.16
2022-11-29T11:32:21.813Z,100506.50
2022-11-29T11:35:22.958Z,100498.88
2022-11-29T11:38:06.708Z,100481.31
2022-11-29T11:41:01.815Z,100491.00
2022-11-29T11:43:55.846Z,100453.78
2022-11-29T11:46:49.353Z,100477.84
2022-11-29T11:49:37.788Z,100489.19
2022-11-29T11:52:24.452Z,100471.88
2022-11-29T11:55:28.629Z,100487.19
2022-11-29T11:58:19.199Z,100491.00
2022-11-29T12:01:17.283Z,100494.47
2022-11-29T12:04:07.007Z,100515.25
2022-11-29T12:06:55.882Z,100512.50
2022-11-29T12:09:45.894Z,100517.03
2022-11-29T12:12:32.902Z,100490.03
2022-11-29T12:15:20.896Z,100503.53
2022-11-29T12:18:12.479Z,100510.94
2022-11-29T12:21:01.265Z,100516.31
2022-11-29T12:23:53.598Z,100480.28
2022-11-29T12:26:57.586Z,100508.66
2022-11-29T12:29:42.271Z,100488.19
2022-11-29T12:32:58.773Z,100492.19
2022-11-29T12:35:56.209Z,100496.13
2022-11-29T12:38:59.955Z,100365.34
2022-11-29T12:41:54.310Z,100518.56
2022-11-29T12:44:50.398Z,100520.25
2022-11-29T12:47:50.387Z,100519.25
2022-11-29T12:50:44.672Z,100531.41
2022-11-29T12:54:08.642Z,100528.94
2022-11-29T12:56:59.821Z,100536.13
2022-11-29T13:00:03.575Z,100527.31
2022-11-29T13:03:03.837Z,100503.38
2022-11-29T13:06:00.073Z,100503.16
2022-11-29T13:08:57.315Z,100552.22
2022-11-29T13:11:48.837Z,100545.94
2022-11-29T13:14:43.452Z,100546.75
2022-11-29T13:17:34.821Z,100550.28
2022-11-29T13:20:31.956Z,100541.19
2022-11-29T13:23:39.292Z,100546.53
2022-11-29T13:26:29.096Z,100541.69
2022-11-29T13:29:17.009Z,100561.44
2022-11-29T13:32:27.038Z,100533.28
2022-11-29T13:35:21.106Z,100521.81
2022-11-29T13:38:11.558Z,100524.75
2022-11-29T13:41:00.993Z,100536.19
2022-11-29T13:43:51.990Z,100538.50
2022-11-29T13:46:44.522Z,100476.53
2022-11-29T13:49:54.497Z,100528.94
2022-11-29T13:52:44.141Z,100485.50
2022-11-29T13:55:31.718Z,100537.44
2022-11-29T13:58:36.501Z,100537.59
2022-11-29T14:01:20.879Z,100521.94
2022-11-29T14:04:08.715Z,100498.16
2022-11-29T14:07:07.066Z,100483.22
2022-11-29T14:09:57.861Z,100539.84
2022-11-29T14:12:44.477Z,100542.28
2022-11-29T14:15:31.432Z,100538.88
2022-11-29T14:18:49.912Z,100544.84
2022-11-29T14:22:21.688Z,100540.19
2022-11-29T14:28:34.184Z,100527.19
2022-11-29T14:31:51.327Z,100559.66
2022-11-29T14:34:43.175Z,100565.78
2022-11-29T14:37:48.664Z,100563.69
2022-11-29T14:40:44.181Z,100512.19
2022-11-29T14:43:34.549Z,100516.91
2022-11-29T14:46:29.662Z,100560.78
2022-11-29T14:49:24.008Z,100540.13
2022-11-29T14:52:20.303Z,100560.19
2022-11-29T14:55:10.707Z,100526.88
2022-11-29T14:58:23.273Z,100557.94
2022-11-29T15:01:10.943Z,100489.06
2022-11-29T15:03:57.608Z,100523.50
2022-11-29T15:06:48.795Z,100536.03
2022-11-29T15:09:38.368Z,100562.75
2022-11-29T15:12:26.674Z,100562.03
2022-11-29T15:15:28.908Z,100518.50
2022-11-29T15:18:28.719Z,100564.69
2022-11-29T15:21:26.140Z,100560.03
2022-11-29T15:24:12.672Z,100567.84
2022-11-29T15:26:57.767Z,100560.16
2022-11-29T15:29:41.709Z,100540.03
2022-11-29T15:32:30.496Z,100529.13
2022-11-29T15:35:19.655Z,100567.63
2022-11-29T15:38:03.907Z,100572.50
2022-11-29T15:40:53.413Z,100545.88
2022-11-29T15:43:40.136Z,100543.16
2022-11-29T15:46:27.185Z,100552.88
2022-11-29T15:49:19.638Z,100569.66
2022-11-29T15:52:10.906Z,100593.78
2022-11-29T15:55:00.879Z,100584.81
2022-11-29T15:57:49.735Z,100594.19
2022-11-29T16:00:33.905Z,100599.91
2022-11-29T16:03:22.793Z,100554.66
2022-11-29T16:06:22.623Z,100602.94
2022-11-29T16:09:09.043Z,100608.72
2022-11-29T16:11:52.971Z,100611.25
2022-11-29T16:14:36.802Z,100613.88
2022-11-29T16:17:21.732Z,100609.25
2022-11-29T16:20:23.454Z,100615.13
2022-11-29T16:23:14.858Z,100609.91
2022-11-29T16:26:03.534Z,100607.44
2022-11-29T16:28:49.661Z,100602.72
2022-11-29T16:31:35.624Z,100627.06
2022-11-29T16:34:27.696Z,100608.94
2022-11-29T16:37:19.621Z,100623.50
2022-11-29T16:40:05.416Z,100623.81
2022-11-29T16:43:08.315Z,100635.00
2022-11-29T16:46:34.722Z,100647.19
2022-11-29T16:49:34.060Z,100643.50
2022-11-29T16:52:25.526Z,100628.72
2022-11-29T16:55:10.853Z,100637.47
2022-11-29T16:57:54.803Z,100641.22
2022-11-29T17:00:38.931Z,100603.13
2022-11-29T17:03:23.260Z,100643.97
2022-11-29T17:06:07.723Z,100644.59
2022-11-29T17:08:53.166Z,100616.59
2022-11-29T17:11:38.672Z,100615.91
2022-11-29T17:14:22.798Z,100642.56
2022-11-29T17:17:06.815Z,100639.75
2022-11-29T17:19:50.666Z,100626.56
2022-11-29T17:22:34.620Z,100641.22
2022-11-29T17:25:18.451Z,100624.72
2022-11-29T17:28:03.872Z,100637.78
2022-11-29T17:30:47.645Z,100632.97
2022-11-29T17:33:31.417Z,100632.00
2022-11-29T17:36:19.330Z,100643.97
2022-11-29T17:39:04.067Z,100648.34
2022-11-29T17:41:48.194Z,100631.28
2022-11-29T17:44:34.418Z,100640.22
2022-11-29T17:47:18.231Z,100626.22
2022-11-29T17:50:02.030Z,100624.41
2022-11-29T17:52:47.129Z,100630.09
2022-11-29T17:55:30.846Z,100648.28
2022-11-29T17:58:14.597Z,100659.69
2022-11-29T18:01:06.520Z,100661.88
2022-11-29T18:03:53.738Z,100657.19
2022-11-29T18:06:40.082Z,100653.19
2022-11-29T18:09:23.858Z,100657.06
2022-11-29T18:12:08.158Z,100663.03
2022-11-29T18:14:52.093Z,100628.88
2022-11-29T18:17:37.584Z,100633.41
2022-11-29T18:20:21.533Z,100624.63
2022-11-29T18:23:08.144Z,100595.50
2022-11-29T18:25:57.492Z,100630.84
2022-11-29T18:28:43.346Z,100653.94
2022-11-29T18:31:29.285Z,100641.66
2022-11-29T18:34:16.314Z,100671.59
2022-11-29T18:37:00.296Z,100631.44
2022-11-29T18:39:44.822Z,100669.53
2022-11-29T18:42:28.992Z,100650.44
2022-11-29T18:45:13.226Z,100643.19
2022-11-29T18:47:57.345Z,100675.28
2022-11-29T18:50:43.017Z,100663.38
2022-11-29T18:53:27.094Z,100645.53
2022-11-29T18:56:15.952Z,100581.22
2022-11-29T18:59:01.753Z,100613.69
2022-11-29T19:01:48.251Z,100606.09
2022-11-29T19:04:32.886Z,100621.66
2022-11-29T19:07:18.496Z,100646.25
2022-11-29T19:10:03.098Z,100591.44
2022-11-29T19:12:47.580Z,100636.31
2022-11-29T19:15:31.963Z,100632.88
2022-11-29T19:18:16.261Z,100612.09
2022-11-29T19:21:06.993Z,100661.56
2022-11-29T19:23:55.558Z,100593.34
2022-11-29T19:26:39.937Z,100641.44
2022-11-29T19:29:23.904Z,100662.63
2022-11-29T19:32:08.780Z,100643.56
2022-11-29T19:34:52.974Z,100608.75
2022-11-29T19:37:36.973Z,100652.00
2022-11-29T19:40:22.845Z,100643.41
2022-11-29T19:43:06.971Z,100653.66
2022-11-29T19:45:51.109Z,100668.81
2022-11-29T19:48:35.164Z,100644.91
2022-11-29T19:51:19.257Z,100667.09
2022-11-29T19:54:05.431Z,100640.56
2022-11-29T19:56:50.800Z,100637.69
2022-11-29T19:59:34.685Z,100710.03
2022-11-29T20:02:18.745Z,100651.78
2022-11-29T20:05:02.893Z,100656.34
2022-11-29T20:07:47.098Z,100676.31
2022-11-29T20:10:31.219Z,100663.06
2022-11-29T20:13:16.768Z,100653.53
2022-11-29T20:16:03.281Z,100650.00
2022-11-29T20:18:51.180Z,100527.22
2022-11-29T20:21:38.306Z,100652.94
2022-11-29T20:24:22.224Z,100690.66
2022-11-29T20:27:06.562Z,100667.78
2022-11-29T20:29:51.896Z,100672.16
2022-11-29T20:32:36.528Z,100659.03
2022-11-29T20:35:21.299Z,100661.03
2022-11-29T20:38:19.241Z,100688.72
2022-11-29T20:41:11.696Z,100664.53
2022-11-29T20:43:57.482Z,100670.31
2022-11-29T20:46:43.278Z,100673.22
2022-11-29T20:49:27.758Z,100690.84
2022-11-29T20:52:20.483Z,100679.00
2022-11-29T20:55:05.091Z,100687.25
2022-11-29T20:57:50.144Z,100691.66
2022-11-29T21:00:34.603Z,100666.88
2022-11-29T21:03:21.276Z,100673.28
2022-11-29T21:06:07.241Z,100722.16
2022-11-29T21:08:52.813Z,100716.91
2022-11-29T21:11:37.200Z,100702.81
2022-11-29T21:14:21.541Z,100727.19
2022-11-29T21:17:06.238Z,100718.97
2022-11-29T21:19:52.033Z,100720.50
2022-11-29T21:22:46.956Z,100696.66
2022-11-29T21:25:42.840Z,100726.22
2022-11-29T21:28:31.461Z,100733.38
2022-11-29T21:31:19.173Z,100739.34
2022-11-29T21:34:03.821Z,100734.53
2022-11-29T21:36:55.260Z,100750.28
2022-11-29T21:39:39.041Z,100721.94
2022-11-29T21:42:23.145Z,100743.91
2022-11-29T21:45:13.434Z,100741.69
2022-11-29T21:48:01.577Z,100732.31
2022-11-29T21:50:50.644Z,100732.66
2022-11-29T21:53:37.039Z,100737.03
2022-11-29T21:56:20.705Z,100749.88
2022-11-29T21:59:05.136Z,100723.91
2022-11-29T22:01:49.373Z,100735.53
2022-11-29T22:04:33.186Z,100733.50
2022-11-29T22:07:17.045Z,100723.53
2022-11-29T22:10:10.029Z,100731.25
2022-11-29T22:12:57.442Z,100728.44
2022-11-29T22:15:41.382Z,100731.81
2022-11-29T22:18:27.822Z,100736.28
2022-11-29T22:21:11.586Z,100720.66
2022-11-29T22:23:57.939Z,100732.72
2022-11-29T22:26:43.830Z,100712.59
2022-11-29T22:29:27.776Z,100726.94
2022-11-29T22:32:11.446Z,100731.41
2022-11-29T22:34:55.245Z,100728.31
2022-11-29T22:37:39.072Z,100718.47
2022-11-29T22:40:22.966Z,100597.44
2022-11-29T22:43:08.059Z,100707.56
2022-11-29T22:45:51.861Z,100723.66
2022-11-29T22:48:39.035Z,100712.16
2022-11-29T22:51:26.326Z,100705.25
2022-11-29T22:54:15.471Z,100697.88
2022-11-29T22:56:59.482Z,100665.13
2022-11-29T22:59:45.089Z,100657.31
2022-11-29T23:02:29.260Z,100660.25
2022-11-29T23:05:13.542Z,100675.44
2022-11-29T23:07:58.492Z,100705.72
2022-11-29T23:10:42.743Z,100667.13
2022-11-29T23:13:27.037Z,100662.44
2022-11-29T23:16:15.459Z,100699.59
2022-11-29T23:19:00.508Z,100696.25
2022-11-29T23:21:45.995Z,100690.91
2022-11-29T23:24:30.618Z,100702.28
2022-11-29T23:27:15.478Z,100705.75
2022-11-29T23:29:59.441Z,100693.63
2022-11-29T23:32:44.990Z,100703.06
2022-11-29T23:35:29.016Z,100697.81
2022-11-29T23:38:13.056Z,100706.28
2022-11-29T23:40:57.610Z,100690.13
2022-11-29T23:43:43.193Z,100690.97
2022-11-29T23:46:27.357Z,100656.00
2022-11-29T23:49:12.798Z,100655.75
2022-11-29T23:51:56.920Z,100700.31
2022-11-29T23:54:41.245Z,100690.31
2022-11-29T23:57:25.493Z,100704.03
